sensor_id;sensor_type;location;lat;lon;timestamp;P1;durP1;ratioP1;P2;durP2;ratioP2
82255;SDS011;72145;34.434;-117.370;2023-10-13T00:00:31;30.65;;;27.75;;
82255;SDS011;72145;34.434;-117.370;2023-10-13T00:01:08;26.50;;;23.77;;
82255;SDS011;72145;34.434;-117.370;2023-10-13T00:01:44;27.05;;;24.52;;
82255;SDS011;72145;34.434;-117.370;2023-10-13T00:02:25;27.63;;;24.95;;
82255;SDS011;72145;34.434;-117.370;2023-10-13T00:02:58;26.58;;;24.30;;
82255;SDS011;72145;34.434;-117.370;2023-10-13T00:03:32;26.90;;;24.27;;
82255;SDS011;72145;34.434;-117.370;2023-10-13T00:04:05;22.60;;;20.55;;
82255;SDS011;72145;34.434;-117.370;2023-10-13T00:04:40;20.60;;;18.80;;
82255;SDS011;72145;34.434;-117.370;2023-10-13T00:05:14;27.08;;;24.40;;
82255;SDS011;72145;34.434;-117.370;2023-10-13T00:05:50;31.80;;;28.45;;
82255;SDS011;72145;34.434;-117.370;2023-10-13T00:06:25;30.98;;;28.58;;
82255;SDS011;72145;34.434;-117.370;2023-10-13T00:07:02;33.15;;;30.52;;
82255;SDS011;72145;34.434;-117.370;2023-10-13T00:07:41;32.47;;;29.70;;
82255;SDS011;72145;34.434;-117.370;2023-10-13T00:08:15;34.33;;;31.88;;
82255;SDS011;72145;34.434;-117.370;2023-10-13T00:08:49;36.85;;;34.20;;
82255;SDS011;72145;34.434;-117.370;2023-10-13T00:09:23;35.33;;;32.58;;
82255;SDS011;72145;34.434;-117.370;2023-10-13T00:10:11;37.25;;;34.35;;
82255;SDS011;72145;34.434;-117.370;2023-10-13T00:10:45;37.75;;;34.45;;
82255;SDS011;72145;34.434;-117.370;2023-10-13T00:11:19;36.05;;;33.38;;
82255;SDS011;72145;34.434;-117.370;2023-10-13T00:11:54;37.83;;;34.67;;
82255;SDS011;72145;34.434;-117.370;2023-10-13T00:12:28;33.30;;;30.15;;
82255;SDS011;72145;34.434;-117.370;2023-10-13T00:13:04;33.75;;;30.48;;
82255;SDS011;72145;34.434;-117.370;2023-10-13T00:13:48;28.15;;;25.63;;
82255;SDS011;72145;34.434;-117.370;2023-10-13T00:14:25;32.17;;;29.27;;
82255;SDS011;72145;34.434;-117.370;2023-10-13T00:15:06;31.75;;;29.23;;
82255;SDS011;72145;34.434;-117.370;2023-10-13T00:15:46;32.97;;;29.95;;
82255;SDS011;72145;34.434;-117.370;2023-10-13T00:16:29;32.97;;;30.52;;
82255;SDS011;72145;34.434;-117.370;2023-10-13T00:17:04;33.42;;;30.13;;
82255;SDS011;72145;34.434;-117.370;2023-10-13T00:17:48;27.63;;;25.63;;
82255;SDS011;72145;34.434;-117.370;2023-10-13T00:18:25;26.63;;;24.10;;
82255;SDS011;72145;34.434;-117.370;2023-10-13T00:18:59;30.58;;;28.13;;
82255;SDS011;72145;34.434;-117.370;2023-10-13T00:19:37;33.30;;;30.42;;
82255;SDS011;72145;34.434;-117.370;2023-10-13T00:20:18;33.72;;;31.08;;
82255;SDS011;72145;34.434;-117.370;2023-10-13T00:21:11;28.08;;;25.85;;
82255;SDS011;72145;34.434;-117.370;2023-10-13T00:22:19;27.15;;;24.52;;
82255;SDS011;72145;34.434;-117.370;2023-10-13T00:22:55;27.17;;;24.90;;
82255;SDS011;72145;34.434;-117.370;2023-10-13T00:23:29;27.98;;;25.38;;
82255;SDS011;72145;34.434;-117.370;2023-10-13T00:24:05;26.42;;;23.83;;
82255;SDS011;72145;34.434;-117.370;2023-10-13T00:24:39;26.20;;;24.20;;
82255;SDS011;72145;34.434;-117.370;2023-10-13T00:25:17;27.23;;;24.63;;
82255;SDS011;72145;34.434;-117.370;2023-10-13T00:25:59;26.60;;;24.20;;
82255;SDS011;72145;34.434;-117.370;2023-10-13T00:26:34;28.00;;;25.67;;
82255;SDS011;72145;34.434;-117.370;2023-10-13T00:27:10;23.17;;;20.85;;
82255;SDS011;72145;34.434;-117.370;2023-10-13T00:28:02;27.88;;;25.48;;
82255;SDS011;72145;34.434;-117.370;2023-10-13T00:28:40;31.13;;;28.67;;
82255;SDS011;72145;34.434;-117.370;2023-10-13T00:30:02;32.65;;;29.98;;
82255;SDS011;72145;34.434;-117.370;2023-10-13T00:30:51;35.40;;;32.00;;
82255;SDS011;72145;34.434;-117.370;2023-10-13T00:31:37;33.08;;;30.67;;
82255;SDS011;72145;34.434;-117.370;2023-10-13T00:32:15;33.75;;;31.23;;
82255;SDS011;72145;34.434;-117.370;2023-10-13T00:32:52;35.65;;;32.47;;
82255;SDS011;72145;34.434;-117.370;2023-10-13T00:33:27;29.45;;;26.73;;
82255;SDS011;72145;34.434;-117.370;2023-10-13T00:34:04;33.47;;;27.40;;
82255;SDS011;72145;34.434;-117.370;2023-10-13T00:34:44;33.10;;;30.10;;
82255;SDS011;72145;34.434;-117.370;2023-10-13T00:35:17;29.75;;;26.83;;
82255;SDS011;72145;34.434;-117.370;2023-10-13T00:36:17;24.63;;;22.23;;
82255;SDS011;72145;34.434;-117.370;2023-10-13T00:36:53;29.50;;;26.80;;
82255;SDS011;72145;34.434;-117.370;2023-10-13T00:37:44;27.40;;;25.20;;
82255;SDS011;72145;34.434;-117.370;2023-10-13T00:38:18;27.85;;;25.35;;
82255;SDS011;72145;34.434;-117.370;2023-10-13T00:38:52;25.40;;;23.08;;
82255;SDS011;72145;34.434;-117.370;2023-10-13T00:39:28;26.92;;;24.67;;
82255;SDS011;72145;34.434;-117.370;2023-10-13T00:40:01;27.85;;;25.45;;
82255;SDS011;72145;34.434;-117.370;2023-10-13T00:41:26;28.45;;;25.92;;
82255;SDS011;72145;34.434;-117.370;2023-10-13T00:42:19;25.42;;;23.02;;
82255;SDS011;72145;34.434;-117.370;2023-10-13T00:42:52;32.55;;;29.08;;
82255;SDS011;72145;34.434;-117.370;2023-10-13T00:43:26;28.63;;;25.98;;
82255;SDS011;72145;34.434;-117.370;2023-10-13T00:44:02;29.42;;;26.85;;
82255;SDS011;72145;34.434;-117.370;2023-10-13T00:44:40;29.60;;;26.80;;
82255;SDS011;72145;34.434;-117.370;2023-10-13T00:45:17;29.27;;;26.80;;
82255;SDS011;72145;34.434;-117.370;2023-10-13T00:45:51;33.55;;;30.50;;
82255;SDS011;72145;34.434;-117.370;2023-10-13T00:46:33;29.70;;;26.48;;
82255;SDS011;72145;34.434;-117.370;2023-10-13T00:47:08;31.20;;;28.15;;
82255;SDS011;72145;34.434;-117.370;2023-10-13T00:47:45;31.23;;;28.40;;
82255;SDS011;72145;34.434;-117.370;2023-10-13T00:48:25;28.30;;;25.65;;
82255;SDS011;72145;34.434;-117.370;2023-10-13T00:49:06;25.38;;;22.80;;
82255;SDS011;72145;34.434;-117.370;2023-10-13T00:49:41;31.65;;;21.88;;
82255;SDS011;72145;34.434;-117.370;2023-10-13T00:50:20;27.90;;;25.48;;
82255;SDS011;72145;34.434;-117.370;2023-10-13T00:50:53;29.17;;;26.55;;
82255;SDS011;72145;34.434;-117.370;2023-10-13T00:51:28;29.73;;;26.80;;
82255;SDS011;72145;34.434;-117.370;2023-10-13T00:52:14;26.40;;;24.05;;
82255;SDS011;72145;34.434;-117.370;2023-10-13T00:52:51;33.33;;;30.48;;
82255;SDS011;72145;34.434;-117.370;2023-10-13T00:53:24;30.35;;;27.75;;
82255;SDS011;72145;34.434;-117.370;2023-10-13T00:54:01;32.53;;;29.83;;
82255;SDS011;72145;34.434;-117.370;2023-10-13T00:54:40;32.97;;;29.65;;
82255;SDS011;72145;34.434;-117.370;2023-10-13T00:55:13;34.95;;;31.23;;
82255;SDS011;72145;34.434;-117.370;2023-10-13T00:55:49;30.55;;;28.05;;
82255;SDS011;72145;34.434;-117.370;2023-10-13T00:56:25;31.45;;;28.60;;
82255;SDS011;72145;34.434;-117.370;2023-10-13T00:56:59;32.60;;;29.73;;
82255;SDS011;72145;34.434;-117.370;2023-10-13T00:57:58;32.78;;;30.33;;
82255;SDS011;72145;34.434;-117.370;2023-10-13T00:58:36;25.38;;;23.10;;
82255;SDS011;72145;34.434;-117.370;2023-10-13T00:59:12;29.98;;;27.45;;
82255;SDS011;72145;34.434;-117.370;2023-10-13T00:59:49;28.05;;;25.58;;
82255;SDS011;72145;34.434;-117.370;2023-10-13T01:00:27;21.60;;;19.27;;
82255;SDS011;72145;34.434;-117.370;2023-10-13T01:01:01;28.95;;;25.90;;
82255;SDS011;72145;34.434;-117.370;2023-10-13T01:01:51;27.70;;;25.20;;
82255;SDS011;72145;34.434;-117.370;2023-10-13T01:02:28;23.38;;;19.33;;
82255;SDS011;72145;34.434;-117.370;2023-10-13T01:03:12;26.83;;;23.52;;
82255;SDS011;72145;34.434;-117.370;2023-10-13T01:03:49;27.02;;;24.27;;
82255;SDS011;72145;34.434;-117.370;2023-10-13T01:04:32;26.58;;;20.95;;
82255;SDS011;72145;34.434;-117.370;2023-10-13T01:05:06;28.77;;;26.17;;
82255;SDS011;72145;34.434;-117.370;2023-10-13T01:05:55;28.25;;;25.30;;
82255;SDS011;72145;34.434;-117.370;2023-10-13T01:06:31;26.20;;;23.63;;
82255;SDS011;72145;34.434;-117.370;2023-10-13T01:07:04;27.60;;;24.00;;
82255;SDS011;72145;34.434;-117.370;2023-10-13T01:07:40;28.20;;;23.33;;
82255;SDS011;72145;34.434;-117.370;2023-10-13T01:08:13;27.13;;;24.17;;
82255;SDS011;72145;34.434;-117.370;2023-10-13T01:08:47;27.92;;;25.52;;
82255;SDS011;72145;34.434;-117.370;2023-10-13T01:09:23;29.23;;;26.45;;
82255;SDS011;72145;34.434;-117.370;2023-10-13T01:09:57;27.98;;;25.30;;
82255;SDS011;72145;34.434;-117.370;2023-10-13T01:10:30;25.88;;;23.15;;
82255;SDS011;72145;34.434;-117.370;2023-10-13T01:11:04;25.33;;;22.77;;
82255;SDS011;72145;34.434;-117.370;2023-10-13T01:11:41;22.33;;;20.00;;
82255;SDS011;72145;34.434;-117.370;2023-10-13T01:12:16;27.23;;;24.70;;
82255;SDS011;72145;34.434;-117.370;2023-10-13T01:12:49;27.75;;;20.38;;
82255;SDS011;72145;34.434;-117.370;2023-10-13T01:13:24;27.25;;;24.35;;
82255;SDS011;72145;34.434;-117.370;2023-10-13T01:13:59;28.90;;;23.63;;
82255;SDS011;72145;34.434;-117.370;2023-10-13T01:14:36;27.33;;;24.80;;
82255;SDS011;72145;34.434;-117.370;2023-10-13T01:15:10;27.30;;;24.50;;
82255;SDS011;72145;34.434;-117.370;2023-10-13T01:15:45;26.23;;;21.80;;
82255;SDS011;72145;34.434;-117.370;2023-10-13T01:16:19;27.05;;;24.58;;
82255;SDS011;72145;34.434;-117.370;2023-10-13T01:16:55;31.40;;;28.55;;
82255;SDS011;72145;34.434;-117.370;2023-10-13T01:17:31;31.25;;;28.25;;
82255;SDS011;72145;34.434;-117.370;2023-10-13T01:18:06;28.65;;;26.10;;
82255;SDS011;72145;34.434;-117.370;2023-10-13T01:18:44;32.00;;;28.70;;
82255;SDS011;72145;34.434;-117.370;2023-10-13T01:19:20;31.63;;;28.15;;
82255;SDS011;72145;34.434;-117.370;2023-10-13T01:19:57;32.58;;;29.38;;
82255;SDS011;72145;34.434;-117.370;2023-10-13T01:20:30;32.53;;;29.40;;
82255;SDS011;72145;34.434;-117.370;2023-10-13T01:21:05;33.28;;;29.92;;
82255;SDS011;72145;34.434;-117.370;2023-10-13T01:21:40;33.97;;;30.25;;
82255;SDS011;72145;34.434;-117.370;2023-10-13T01:22:13;31.88;;;28.95;;
82255;SDS011;72145;34.434;-117.370;2023-10-13T01:22:46;31.52;;;28.48;;
82255;SDS011;72145;34.434;-117.370;2023-10-13T01:23:27;27.15;;;24.27;;
82255;SDS011;72145;34.434;-117.370;2023-10-13T01:24:01;26.83;;;23.85;;
82255;SDS011;72145;34.434;-117.370;2023-10-13T01:24:34;26.58;;;23.70;;
82255;SDS011;72145;34.434;-117.370;2023-10-13T01:25:07;26.15;;;20.92;;
82255;SDS011;72145;34.434;-117.370;2023-10-13T01:25:45;23.23;;;20.85;;
82255;SDS011;72145;34.434;-117.370;2023-10-13T01:26:20;28.95;;;26.17;;
82255;SDS011;72145;34.434;-117.370;2023-10-13T01:26:56;34.15;;;27.02;;
82255;SDS011;72145;34.434;-117.370;2023-10-13T01:27:30;28.23;;;24.90;;
82255;SDS011;72145;34.434;-117.370;2023-10-13T01:28:04;29.55;;;26.48;;
82255;SDS011;72145;34.434;-117.370;2023-10-13T01:28:39;29.95;;;27.13;;
82255;SDS011;72145;34.434;-117.370;2023-10-13T01:29:19;24.45;;;22.23;;
82255;SDS011;72145;34.434;-117.370;2023-10-13T01:30:01;27.70;;;25.40;;
82255;SDS011;72145;34.434;-117.370;2023-10-13T01:30:55;31.63;;;29.00;;
82255;SDS011;72145;34.434;-117.370;2023-10-13T01:31:28;29.45;;;26.83;;
82255;SDS011;72145;34.434;-117.370;2023-10-13T01:32:10;30.42;;;27.85;;
82255;SDS011;72145;34.434;-117.370;2023-10-13T01:32:45;27.63;;;25.33;;
82255;SDS011;72145;34.434;-117.370;2023-10-13T01:33:19;28.70;;;26.10;;
82255;SDS011;72145;34.434;-117.370;2023-10-13T01:34:01;30.48;;;27.38;;
82255;SDS011;72145;34.434;-117.370;2023-10-13T01:34:40;29.45;;;26.80;;
82255;SDS011;72145;34.434;-117.370;2023-10-13T01:35:18;28.50;;;26.10;;
82255;SDS011;72145;34.434;-117.370;2023-10-13T01:35:51;30.90;;;28.25;;
82255;SDS011;72145;34.434;-117.370;2023-10-13T01:36:28;29.05;;;26.50;;
82255;SDS011;72145;34.434;-117.370;2023-10-13T01:37:07;28.35;;;22.77;;
82255;SDS011;72145;34.434;-117.370;2023-10-13T01:37:45;30.23;;;27.42;;
82255;SDS011;72145;34.434;-117.370;2023-10-13T01:38:18;36.45;;;27.08;;
82255;SDS011;72145;34.434;-117.370;2023-10-13T01:38:54;30.55;;;27.10;;
82255;SDS011;72145;34.434;-117.370;2023-10-13T01:39:27;30.40;;;27.65;;
82255;SDS011;72145;34.434;-117.370;2023-10-13T01:40:01;31.30;;;28.52;;
82255;SDS011;72145;34.434;-117.370;2023-10-13T01:40:34;30.67;;;28.02;;
82255;SDS011;72145;34.434;-117.370;2023-10-13T01:41:08;26.75;;;24.25;;
82255;SDS011;72145;34.434;-117.370;2023-10-13T01:41:41;32.90;;;30.50;;
82255;SDS011;72145;34.434;-117.370;2023-10-13T01:42:16;35.30;;;32.50;;
82255;SDS011;72145;34.434;-117.370;2023-10-13T01:43:00;34.00;;;31.38;;
82255;SDS011;72145;34.434;-117.370;2023-10-13T01:43:36;28.73;;;26.17;;
82255;SDS011;72145;34.434;-117.370;2023-10-13T01:44:10;28.50;;;26.00;;
82255;SDS011;72145;34.434;-117.370;2023-10-13T01:44:49;36.35;;;33.70;;
82255;SDS011;72145;34.434;-117.370;2023-10-13T01:45:23;33.47;;;30.88;;
82255;SDS011;72145;34.434;-117.370;2023-10-13T01:46:01;30.88;;;28.35;;
82255;SDS011;72145;34.434;-117.370;2023-10-13T01:46:40;27.50;;;25.55;;
82255;SDS011;72145;34.434;-117.370;2023-10-13T01:47:14;29.73;;;27.42;;
82255;SDS011;72145;34.434;-117.370;2023-10-13T01:47:49;28.27;;;26.05;;
82255;SDS011;72145;34.434;-117.370;2023-10-13T01:48:23;27.75;;;25.80;;
82255;SDS011;72145;34.434;-117.370;2023-10-13T01:48:56;31.83;;;29.20;;
82255;SDS011;72145;34.434;-117.370;2023-10-13T01:49:32;33.05;;;30.52;;
82255;SDS011;72145;34.434;-117.370;2023-10-13T01:50:14;32.47;;;29.42;;
82255;SDS011;72145;34.434;-117.370;2023-10-13T01:50:56;30.00;;;27.48;;
82255;SDS011;72145;34.434;-117.370;2023-10-13T01:51:32;28.73;;;26.30;;
82255;SDS011;72145;34.434;-117.370;2023-10-13T01:52:05;29.75;;;27.45;;
82255;SDS011;72145;34.434;-117.370;2023-10-13T01:52:38;31.05;;;28.75;;
82255;SDS011;72145;34.434;-117.370;2023-10-13T01:53:14;32.80;;;30.10;;
82255;SDS011;72145;34.434;-117.370;2023-10-13T01:53:50;28.92;;;26.45;;
82255;SDS011;72145;34.434;-117.370;2023-10-13T01:54:30;30.33;;;27.85;;
82255;SDS011;72145;34.434;-117.370;2023-10-13T01:55:04;32.33;;;29.92;;
82255;SDS011;72145;34.434;-117.370;2023-10-13T01:55:42;30.30;;;27.90;;
82255;SDS011;72145;34.434;-117.370;2023-10-13T01:56:15;29.25;;;27.00;;
82255;SDS011;72145;34.434;-117.370;2023-10-13T01:56:48;30.70;;;28.40;;
82255;SDS011;72145;34.434;-117.370;2023-10-13T01:57:22;31.83;;;29.50;;
82255;SDS011;72145;34.434;-117.370;2023-10-13T01:57:56;32.88;;;30.27;;
82255;SDS011;72145;34.434;-117.370;2023-10-13T01:58:29;28.17;;;25.95;;
82255;SDS011;72145;34.434;-117.370;2023-10-13T01:59:03;31.17;;;28.92;;
82255;SDS011;72145;34.434;-117.370;2023-10-13T01:59:38;33.20;;;30.50;;
82255;SDS011;72145;34.434;-117.370;2023-10-13T02:00:16;30.63;;;28.33;;
82255;SDS011;72145;34.434;-117.370;2023-10-13T02:00:52;30.77;;;28.38;;
82255;SDS011;72145;34.434;-117.370;2023-10-13T02:01:32;29.88;;;27.40;;
82255;SDS011;72145;34.434;-117.370;2023-10-13T02:02:08;25.23;;;23.05;;
82255;SDS011;72145;34.434;-117.370;2023-10-13T02:02:45;25.88;;;23.60;;
82255;SDS011;72145;34.434;-117.370;2023-10-13T02:03:19;32.08;;;29.40;;
82255;SDS011;72145;34.434;-117.370;2023-10-13T02:03:57;28.83;;;26.38;;
82255;SDS011;72145;34.434;-117.370;2023-10-13T02:04:36;30.63;;;27.77;;
82255;SDS011;72145;34.434;-117.370;2023-10-13T02:05:14;25.52;;;22.75;;
82255;SDS011;72145;34.434;-117.370;2023-10-13T02:05:49;31.95;;;29.33;;
82255;SDS011;72145;34.434;-117.370;2023-10-13T02:06:30;31.13;;;28.50;;
82255;SDS011;72145;34.434;-117.370;2023-10-13T02:07:08;32.30;;;29.35;;
82255;SDS011;72145;34.434;-117.370;2023-10-13T02:07:42;32.25;;;29.58;;
82255;SDS011;72145;34.434;-117.370;2023-10-13T02:08:22;31.63;;;28.70;;
82255;SDS011;72145;34.434;-117.370;2023-10-13T02:08:57;32.95;;;30.30;;
82255;SDS011;72145;34.434;-117.370;2023-10-13T02:09:36;31.83;;;29.33;;
82255;SDS011;72145;34.434;-117.370;2023-10-13T02:10:10;34.20;;;31.27;;
82255;SDS011;72145;34.434;-117.370;2023-10-13T02:10:47;31.70;;;29.23;;
82255;SDS011;72145;34.434;-117.370;2023-10-13T02:11:20;27.63;;;24.98;;
82255;SDS011;72145;34.434;-117.370;2023-10-13T02:11:53;29.40;;;26.65;;
82255;SDS011;72145;34.434;-117.370;2023-10-13T02:12:26;27.20;;;24.90;;
82255;SDS011;72145;34.434;-117.370;2023-10-13T02:13:13;26.17;;;23.65;;
82255;SDS011;72145;34.434;-117.370;2023-10-13T02:13:50;28.10;;;24.52;;
82255;SDS011;72145;34.434;-117.370;2023-10-13T02:14:23;36.72;;;32.95;;
82255;SDS011;72145;34.434;-117.370;2023-10-13T02:15:00;40.42;;;33.85;;
82255;SDS011;72145;34.434;-117.370;2023-10-13T02:15:33;37.58;;;33.72;;
82255;SDS011;72145;34.434;-117.370;2023-10-13T02:16:07;37.38;;;33.65;;
82255;SDS011;72145;34.434;-117.370;2023-10-13T02:16:41;36.22;;;31.83;;
82255;SDS011;72145;34.434;-117.370;2023-10-13T02:17:17;41.72;;;32.25;;
82255;SDS011;72145;34.434;-117.370;2023-10-13T02:17:53;36.15;;;26.08;;
82255;SDS011;72145;34.434;-117.370;2023-10-13T02:18:27;39.15;;;33.47;;
82255;SDS011;72145;34.434;-117.370;2023-10-13T02:19:05;37.03;;;33.05;;
82255;SDS011;72145;34.434;-117.370;2023-10-13T02:19:40;65.55;;;35.20;;
82255;SDS011;72145;34.434;-117.370;2023-10-13T02:20:17;35.38;;;32.17;;
82255;SDS011;72145;34.434;-117.370;2023-10-13T02:20:55;30.90;;;24.83;;
82255;SDS011;72145;34.434;-117.370;2023-10-13T02:21:39;28.85;;;25.70;;
82255;SDS011;72145;34.434;-117.370;2023-10-13T02:22:16;28.75;;;26.13;;
82255;SDS011;72145;34.434;-117.370;2023-10-13T02:23:04;27.17;;;24.38;;
82255;SDS011;72145;34.434;-117.370;2023-10-13T02:23:42;30.15;;;27.30;;
82255;SDS011;72145;34.434;-117.370;2023-10-13T02:24:32;29.73;;;26.85;;
82255;SDS011;72145;34.434;-117.370;2023-10-13T02:25:08;24.17;;;21.88;;
82255;SDS011;72145;34.434;-117.370;2023-10-13T02:25:49;31.85;;;28.80;;
82255;SDS011;72145;34.434;-117.370;2023-10-13T02:26:33;22.20;;;20.15;;
82255;SDS011;72145;34.434;-117.370;2023-10-13T02:27:11;27.83;;;25.30;;
82255;SDS011;72145;34.434;-117.370;2023-10-13T02:27:49;28.25;;;25.67;;
82255;SDS011;72145;34.434;-117.370;2023-10-13T02:28:53;28.65;;;26.30;;
82255;SDS011;72145;34.434;-117.370;2023-10-13T02:29:29;28.95;;;26.65;;
82255;SDS011;72145;34.434;-117.370;2023-10-13T02:30:02;28.95;;;26.60;;
82255;SDS011;72145;34.434;-117.370;2023-10-13T02:30:41;30.02;;;27.58;;
82255;SDS011;72145;34.434;-117.370;2023-10-13T02:31:20;26.33;;;23.75;;
82255;SDS011;72145;34.434;-117.370;2023-10-13T02:31:56;33.60;;;30.67;;
82255;SDS011;72145;34.434;-117.370;2023-10-13T02:32:30;31.65;;;29.08;;
82255;SDS011;72145;34.434;-117.370;2023-10-13T02:33:06;32.55;;;29.90;;
82255;SDS011;72145;34.434;-117.370;2023-10-13T02:34:17;39.33;;;35.20;;
82255;SDS011;72145;34.434;-117.370;2023-10-13T02:34:55;38.22;;;34.22;;
82255;SDS011;72145;34.434;-117.370;2023-10-13T02:35:38;39.63;;;34.33;;
82255;SDS011;72145;34.434;-117.370;2023-10-13T02:36:22;31.23;;;27.65;;
82255;SDS011;72145;34.434;-117.370;2023-10-13T02:37:08;40.80;;;29.90;;
82255;SDS011;72145;34.434;-117.370;2023-10-13T02:37:45;35.10;;;25.60;;
82255;SDS011;72145;34.434;-117.370;2023-10-13T02:38:26;31.30;;;24.25;;
82255;SDS011;72145;34.434;-117.370;2023-10-13T02:39:12;38.38;;;31.45;;
82255;SDS011;72145;34.434;-117.370;2023-10-13T02:39:46;43.85;;;30.52;;
82255;SDS011;72145;34.434;-117.370;2023-10-13T02:40:19;33.00;;;28.85;;
82255;SDS011;72145;34.434;-117.370;2023-10-13T02:40:55;29.85;;;24.33;;
82255;SDS011;72145;34.434;-117.370;2023-10-13T02:41:28;34.75;;;31.10;;
82255;SDS011;72145;34.434;-117.370;2023-10-13T02:42:04;29.42;;;26.58;;
82255;SDS011;72145;34.434;-117.370;2023-10-13T02:42:42;30.83;;;27.85;;
82255;SDS011;72145;34.434;-117.370;2023-10-13T02:43:15;29.27;;;25.50;;
82255;SDS011;72145;34.434;-117.370;2023-10-13T02:43:54;33.90;;;27.38;;
82255;SDS011;72145;34.434;-117.370;2023-10-13T02:44:28;30.50;;;27.48;;
82255;SDS011;72145;34.434;-117.370;2023-10-13T02:45:07;32.33;;;27.73;;
82255;SDS011;72145;34.434;-117.370;2023-10-13T02:45:51;30.50;;;27.63;;
82255;SDS011;72145;34.434;-117.370;2023-10-13T02:46:30;29.30;;;26.70;;
82255;SDS011;72145;34.434;-117.370;2023-10-13T02:47:03;27.38;;;24.95;;
82255;SDS011;72145;34.434;-117.370;2023-10-13T02:47:46;28.00;;;25.58;;
82255;SDS011;72145;34.434;-117.370;2023-10-13T02:48:39;28.92;;;24.67;;
82255;SDS011;72145;34.434;-117.370;2023-10-13T02:49:15;28.40;;;25.73;;
82255;SDS011;72145;34.434;-117.370;2023-10-13T02:49:53;30.75;;;27.98;;
82255;SDS011;72145;34.434;-117.370;2023-10-13T02:50:29;29.95;;;26.98;;
82255;SDS011;72145;34.434;-117.370;2023-10-13T02:51:05;29.85;;;27.33;;
82255;SDS011;72145;34.434;-117.370;2023-10-13T02:51:49;28.67;;;26.23;;
82255;SDS011;72145;34.434;-117.370;2023-10-13T02:52:25;30.08;;;27.45;;
82255;SDS011;72145;34.434;-117.370;2023-10-13T02:52:58;29.85;;;27.27;;
82255;SDS011;72145;34.434;-117.370;2023-10-13T02:53:32;31.20;;;28.50;;
82255;SDS011;72145;34.434;-117.370;2023-10-13T02:54:05;30.23;;;27.58;;
82255;SDS011;72145;34.434;-117.370;2023-10-13T02:54:58;28.85;;;26.00;;
82255;SDS011;72145;34.434;-117.370;2023-10-13T02:55:31;24.40;;;22.13;;
82255;SDS011;72145;34.434;-117.370;2023-10-13T02:56:06;30.70;;;27.83;;
82255;SDS011;72145;34.434;-117.370;2023-10-13T02:56:40;32.38;;;29.58;;
82255;SDS011;72145;34.434;-117.370;2023-10-13T02:57:44;29.63;;;27.20;;
82255;SDS011;72145;34.434;-117.370;2023-10-13T02:58:19;38.50;;;35.58;;
82255;SDS011;72145;34.434;-117.370;2023-10-13T02:58:52;36.50;;;33.58;;
82255;SDS011;72145;34.434;-117.370;2023-10-13T02:59:29;38.05;;;34.75;;
82255;SDS011;72145;34.434;-117.370;2023-10-13T03:00:14;36.00;;;32.92;;
82255;SDS011;72145;34.434;-117.370;2023-10-13T03:00:48;32.00;;;28.95;;
82255;SDS011;72145;34.434;-117.370;2023-10-13T03:01:21;36.15;;;33.00;;
82255;SDS011;72145;34.434;-117.370;2023-10-13T03:02:01;36.15;;;33.17;;
82255;SDS011;72145;34.434;-117.370;2023-10-13T03:02:53;32.65;;;29.85;;
82255;SDS011;72145;34.434;-117.370;2023-10-13T03:03:30;32.85;;;30.08;;
82255;SDS011;72145;34.434;-117.370;2023-10-13T03:04:04;27.45;;;24.85;;
82255;SDS011;72145;34.434;-117.370;2023-10-13T03:04:48;29.67;;;26.33;;
82255;SDS011;72145;34.434;-117.370;2023-10-13T03:05:22;27.42;;;25.00;;
82255;SDS011;72145;34.434;-117.370;2023-10-13T03:05:58;29.65;;;26.90;;
82255;SDS011;72145;34.434;-117.370;2023-10-13T03:06:32;28.33;;;25.65;;
82255;SDS011;72145;34.434;-117.370;2023-10-13T03:07:05;23.13;;;20.90;;
82255;SDS011;72145;34.434;-117.370;2023-10-13T03:07:40;27.77;;;25.23;;
82255;SDS011;72145;34.434;-117.370;2023-10-13T03:08:16;28.13;;;25.55;;
82255;SDS011;72145;34.434;-117.370;2023-10-13T03:08:59;33.55;;;25.60;;
82255;SDS011;72145;34.434;-117.370;2023-10-13T03:09:47;32.60;;;26.88;;
82255;SDS011;72145;34.434;-117.370;2023-10-13T03:10:24;28.38;;;25.38;;
82255;SDS011;72145;34.434;-117.370;2023-10-13T03:11:01;28.92;;;25.45;;
82255;SDS011;72145;34.434;-117.370;2023-10-13T03:11:37;31.38;;;25.13;;
82255;SDS011;72145;34.434;-117.370;2023-10-13T03:12:12;36.83;;;26.25;;
82255;SDS011;72145;34.434;-117.370;2023-10-13T03:12:47;23.75;;;21.42;;
82255;SDS011;72145;34.434;-117.370;2023-10-13T03:13:21;24.40;;;22.33;;
82255;SDS011;72145;34.434;-117.370;2023-10-13T03:13:54;26.23;;;23.63;;
82255;SDS011;72145;34.434;-117.370;2023-10-13T03:14:27;26.77;;;24.27;;
82255;SDS011;72145;34.434;-117.370;2023-10-13T03:15:04;25.92;;;22.27;;
82255;SDS011;72145;34.434;-117.370;2023-10-13T03:15:43;25.30;;;22.30;;
82255;SDS011;72145;34.434;-117.370;2023-10-13T03:16:19;26.23;;;22.23;;
82255;SDS011;72145;34.434;-117.370;2023-10-13T03:17:00;28.27;;;23.10;;
82255;SDS011;72145;34.434;-117.370;2023-10-13T03:17:47;28.67;;;22.52;;
82255;SDS011;72145;34.434;-117.370;2023-10-13T03:18:20;31.40;;;22.58;;
82255;SDS011;72145;34.434;-117.370;2023-10-13T03:18:53;28.88;;;23.60;;
82255;SDS011;72145;34.434;-117.370;2023-10-13T03:19:28;31.23;;;23.20;;
82255;SDS011;72145;34.434;-117.370;2023-10-13T03:20:11;26.98;;;24.45;;
82255;SDS011;72145;34.434;-117.370;2023-10-13T03:20:48;35.45;;;27.52;;
82255;SDS011;72145;34.434;-117.370;2023-10-13T03:21:28;32.05;;;24.33;;
82255;SDS011;72145;34.434;-117.370;2023-10-13T03:22:04;30.50;;;27.50;;
82255;SDS011;72145;34.434;-117.370;2023-10-13T03:23:24;34.72;;;29.77;;
82255;SDS011;72145;34.434;-117.370;2023-10-13T03:23:58;34.42;;;30.98;;
82255;SDS011;72145;34.434;-117.370;2023-10-13T03:24:39;34.30;;;30.70;;
82255;SDS011;72145;34.434;-117.370;2023-10-13T03:25:25;29.30;;;26.13;;
82255;SDS011;72145;34.434;-117.370;2023-10-13T03:26:02;35.50;;;31.95;;
82255;SDS011;72145;34.434;-117.370;2023-10-13T03:26:42;34.83;;;30.95;;
82255;SDS011;72145;34.434;-117.370;2023-10-13T03:27:23;28.45;;;25.20;;
82255;SDS011;72145;34.434;-117.370;2023-10-13T03:28:01;31.45;;;27.90;;
82255;SDS011;72145;34.434;-117.370;2023-10-13T03:28:37;30.00;;;23.20;;
82255;SDS011;72145;34.434;-117.370;2023-10-13T03:29:11;29.83;;;19.05;;
82255;SDS011;72145;34.434;-117.370;2023-10-13T03:29:54;33.05;;;22.00;;
82255;SDS011;72145;34.434;-117.370;2023-10-13T03:30:28;25.52;;;21.60;;
82255;SDS011;72145;34.434;-117.370;2023-10-13T03:31:17;27.75;;;22.30;;
82255;SDS011;72145;34.434;-117.370;2023-10-13T03:32:00;26.13;;;22.67;;
82255;SDS011;72145;34.434;-117.370;2023-10-13T03:32:39;30.92;;;22.20;;
82255;SDS011;72145;34.434;-117.370;2023-10-13T03:33:16;27.98;;;20.65;;
82255;SDS011;72145;34.434;-117.370;2023-10-13T03:33:58;27.77;;;22.58;;